Terminal Aerodrome Forecast
Issued by NWS

Home | Current Version | Previous Version | Text Only | Print | Product List | Glossary On
Versions: 1 2 3 4 5 6 7 8 9 10 11 12 13 14
685
FTUS46 KLOX 291725
TAFSBA
TAF
KSBA 291725Z 2918/3018 26005KT P6SM SKC
     FM292000 24008KT P6SM SKC
     FM300200 VRB03KT P6SM SKC WS015/34025KT
     FM300700 08006KT P6SM SKC=

USA.gov is the U.S. government's official web portal to all federal, state and local government web resources and services.